CheckWX is a tool to help pilots better visualize weather data.  It is not intended as a substitute for an official pre-flight weather briefing.

21:04:49 UTC

KHFD METAR
Hartford-Brainard Airport
Hartford, Connecticut, USA
Current

12 mins ago

KHFD 232053Z 16010KT 10SM FEW033 SCT120 19/12 A2995 RMK AO2 PRESFR SLP141 T01890122 58030
Observed
May-23 @ 20:53 UTC
Wind
  • 160° at 10 KTS
Visibility
10 SM
Flight Rules
VFR
Cloud Levels
  • Few at 3,300' AGL
  • Scattered at 12,000' AGL
Temperature
19°C / 66°F
Dewpoint
12°C / 54°F
Humidity
64%
Altimeter
29.95" Hg
Pressure
1014.22 hPa
Previous

1 hour ago

KHFD 231953Z 20011G18KT 10SM FEW065 19/11 A3000 RMK AO2 LTG DSNT N SLP159 T01940106
Observed
May-23 @ 19:53 UTC
Wind
  • 200° at 11 KTS
  • Gusting to 18 KTS
Visibility
10 SM
Flight Rules
VFR
Cloud Levels
  • Few at 6,500' AGL
Temperature
19°C / 66°F
Dewpoint
11°C / 52°F
Humidity
60%
Altimeter
30" Hg
Pressure
1015.92 hPa
Previous

2 hours ago

KHFD 231853Z 18011G17KT 10SM FEW045 BKN100 21/11 A3002 RMK AO2 SLP164 T02060106
Observed
May-23 @ 18:53 UTC
Wind
  • 180° at 11 KTS
  • Gusting to 17 KTS
Visibility
10 SM
Flight Rules
VFR
Cloud Levels
  • Few at 4,500' AGL
  • Broken at 10,000' AGL
Temperature
21°C / 70°F
Dewpoint
11°C / 52°F
Humidity
53%
Altimeter
30.02" Hg
Pressure
1016.62 hPa